Whitney, Mississippi
Current Conditions -  °F | °C
As of 9:55 AM on Saturday 20 Dec 2014 (Local Time) from KRNV Reporting Station
Clear Clear  
Wind Chill: 40°   Ceiling: Unl
Heat Index: 44°   Visibility: 10mi
Dew Point: 38°   Wind: 7mph
Humidity: 78%   Direction: 50°NE
Pressure: 30.28"   Gusts: NA
Location:  33.8731°N, 90.5512°W
Report Text: KRNV 201555Z AUTO 05006KT 10SM CLR 07/03 A3028 RMK AO2 T00670032
Loading
Personal Weather Stations






























Interactive Weather Map New forecast layout! Learn more

10-Day Weather Forecast

Advertisements
Track Severe Weather on mobile